createdAt,value
2023-04-09T00:00:22.779Z,71.40
2023-04-09T00:02:49.245Z,63.00
2023-04-09T00:05:15.858Z,63.08
2023-04-09T00:07:44.360Z,64.47
2023-04-09T00:10:11.171Z,76.65
2023-04-09T00:12:37.630Z,95.50
2023-04-09T00:15:04.340Z,94.65
2023-04-09T00:17:30.797Z,88.95
2023-04-09T00:19:57.244Z,103.10
2023-04-09T00:22:23.720Z,93.03
2023-04-09T00:24:50.186Z,98.13
2023-04-09T00:27:16.749Z,103.95
2023-04-09T00:29:43.247Z,88.65
2023-04-09T00:32:09.738Z,86.30
2023-04-09T00:34:36.242Z,84.28
2023-04-09T00:37:02.677Z,65.00
2023-04-09T00:39:29.106Z,56.10
2023-04-09T00:41:57.023Z,58.92
2023-04-09T00:44:23.468Z,54.75
2023-04-09T00:46:49.933Z,52.40
2023-04-09T00:49:16.743Z,47.83
2023-04-09T00:51:45.044Z,45.08
2023-04-09T00:54:12.039Z,40.72
2023-04-09T00:56:38.587Z,42.65
2023-04-09T00:59:05.051Z,43.08
2023-04-09T01:03:57.975Z,47.08
2023-04-09T01:06:45.376Z,46.20
2023-04-09T01:09:20.581Z,43.70
2023-04-09T01:12:04.147Z,46.88
2023-04-09T01:14:38.922Z,48.22
2023-04-09T01:17:11.131Z,42.22
2023-04-09T01:19:54.015Z,41.90
2023-04-09T01:22:31.486Z,50.63
2023-04-09T01:25:42.651Z,53.70
2023-04-09T01:28:23.740Z,49.17
2023-04-09T01:30:56.940Z,57.38
2023-04-09T01:33:25.348Z,55.30
2023-04-09T01:35:53.631Z,51.97
2023-04-09T01:38:21.711Z,53.00
2023-04-09T01:40:50.230Z,50.13
2023-04-09T01:43:17.797Z,52.03
2023-04-09T01:48:13.974Z,59.75
2023-04-09T01:50:40.679Z,62.10
2023-04-09T01:53:07.577Z,55.58
2023-04-09T01:55:34.027Z,48.47
2023-04-09T01:58:00.488Z,49.35
2023-04-09T02:00:35.102Z,48.47
2023-04-09T02:03:29.153Z,47.30
2023-04-09T02:06:12.358Z,58.60
2023-04-09T02:08:39.307Z,48.08
2023-04-09T02:11:09.893Z,45.78
2023-04-09T02:13:40.108Z,48.72
2023-04-09T02:16:07.584Z,45.42
2023-04-09T02:21:00.922Z,39.42
2023-04-09T02:23:27.380Z,47.00
2023-04-09T02:25:54.100Z,48.00
2023-04-09T02:28:20.616Z,44.67
2023-04-09T02:30:47.103Z,44.25
2023-04-09T02:33:13.595Z,42.92
2023-04-09T02:35:40.122Z,42.15
2023-04-09T02:38:06.645Z,44.00
2023-04-09T02:40:33.065Z,45.33
2023-04-09T02:42:59.529Z,49.45
2023-04-09T02:45:25.979Z,52.30
2023-04-09T02:47:52.489Z,46.97
2023-04-09T02:50:19.192Z,45.83
2023-04-09T02:52:48.438Z,41.90
2023-04-09T02:55:15.435Z,39.25
2023-04-09T02:57:41.946Z,44.00
2023-04-09T03:00:09.482Z,43.85
2023-04-09T03:05:02.930Z,44.15
2023-04-09T03:07:29.460Z,40.40
2023-04-09T03:09:55.904Z,42.15
2023-04-09T03:12:22.486Z,42.90
2023-04-09T03:14:48.934Z,41.67
2023-04-09T03:17:15.378Z,43.38
2023-04-09T03:19:41.867Z,51.33
2023-04-09T03:22:08.326Z,52.90
2023-04-09T03:24:34.808Z,64.40
2023-04-09T03:27:01.264Z,62.50
2023-04-09T03:29:27.701Z,63.13
2023-04-09T03:31:54.175Z,61.92
2023-04-09T03:34:20.658Z,62.38
2023-04-09T03:36:47.145Z,66.18
2023-04-09T03:39:13.585Z,63.05
2023-04-09T03:41:40.046Z,62.75
2023-04-09T03:44:06.523Z,60.78
2023-04-09T03:46:33.067Z,58.35
2023-04-09T03:48:59.620Z,56.28
2023-04-09T03:51:26.066Z,49.75
2023-04-09T03:53:52.744Z,52.55
2023-04-09T03:56:19.274Z,49.72
2023-04-09T03:58:45.691Z,53.50
2023-04-09T04:01:12.125Z,46.75
2023-04-09T04:03:38.766Z,46.65
2023-04-09T04:06:05.553Z,42.25
2023-04-09T04:08:31.998Z,42.75
2023-04-09T04:11:04.045Z,45.90
2023-04-09T04:13:30.561Z,43.65
2023-04-09T04:15:57.152Z,46.78
2023-04-09T04:18:23.626Z,43.22
2023-04-09T04:20:50.093Z,52.08
2023-04-09T04:23:16.528Z,48.83
2023-04-09T04:25:43.048Z,51.35
2023-04-09T04:28:09.486Z,60.63
2023-04-09T04:30:35.971Z,58.92
2023-04-09T04:33:02.517Z,64.28
2023-04-09T04:35:29.075Z,60.75
2023-04-09T04:37:55.550Z,64.90
2023-04-09T04:40:22.197Z,63.95
2023-04-09T04:42:48.625Z,65.65
2023-04-09T04:45:15.145Z,69.03
2023-04-09T04:47:41.662Z,74.53
2023-04-09T04:50:08.894Z,69.80
2023-04-09T04:52:36.366Z,74.43
2023-04-09T04:57:29.192Z,66.15
2023-04-09T04:59:55.637Z,70.53
2023-04-09T05:02:22.274Z,83.18
2023-04-09T05:04:48.820Z,78.72
2023-04-09T05:07:16.011Z,77.10
2023-04-09T05:09:42.458Z,79.15
2023-04-09T05:12:08.902Z,204.70
2023-04-09T05:14:35.369Z,399.65
2023-04-09T05:17:01.924Z,562.22
2023-04-09T05:19:28.417Z,810.30
2023-04-09T05:21:54.871Z,651.95
2023-04-09T05:24:21.328Z,540.65
2023-04-09T05:26:47.857Z,174.00
2023-04-09T05:29:14.335Z,237.55
2023-04-09T05:31:40.778Z,200.30
2023-04-09T05:34:07.271Z,142.02
2023-04-09T05:36:33.777Z,109.53
2023-04-09T05:39:00.242Z,98.32
2023-04-09T05:41:26.681Z,164.85
2023-04-09T05:43:53.444Z,165.48
2023-04-09T05:46:20.128Z,72.75
2023-04-09T05:48:46.576Z,67.35
2023-04-09T05:51:13.012Z,61.83
2023-04-09T05:53:39.493Z,61.83
2023-04-09T05:56:16.004Z,101.07
2023-04-09T05:58:42.899Z,102.13
2023-04-09T06:01:09.458Z,92.13
2023-04-09T06:03:36.123Z,85.00
2023-04-09T06:06:02.684Z,72.63
2023-04-09T06:08:29.167Z,73.57
2023-04-09T06:10:55.604Z,72.88
2023-04-09T06:13:22.158Z,67.20
2023-04-09T06:15:48.660Z,64.38
2023-04-09T06:18:15.183Z,74.00
2023-04-09T06:20:41.677Z,70.05
2023-04-09T06:23:08.117Z,73.63
2023-04-09T06:25:35.886Z,75.40
2023-04-09T06:28:02.486Z,71.65
2023-04-09T06:30:29.563Z,74.78
2023-04-09T06:32:56.033Z,71.68
2023-04-09T06:35:23.038Z,68.88
2023-04-09T06:37:49.525Z,178.85
2023-04-09T06:40:16.075Z,73.05
2023-04-09T06:42:42.599Z,63.20
2023-04-09T06:45:09.541Z,57.15
2023-04-09T06:47:36.370Z,55.30
2023-04-09T06:50:03.389Z,53.33
2023-04-09T06:52:29.960Z,57.40
2023-04-09T06:54:56.395Z,66.50
2023-04-09T06:57:22.900Z,81.05
2023-04-09T06:59:49.392Z,112.07
2023-04-09T07:02:16.016Z,93.75
2023-04-09T07:04:42.670Z,69.13
2023-04-09T07:07:09.429Z,72.35
2023-04-09T07:09:35.934Z,58.45
2023-04-09T07:12:02.458Z,67.70
2023-04-09T07:14:29.017Z,76.88
2023-04-09T07:16:55.466Z,61.35
2023-04-09T07:19:21.971Z,49.83
2023-04-09T07:21:48.447Z,59.55
2023-04-09T07:24:14.905Z,55.63
2023-04-09T07:26:41.367Z,57.72
2023-04-09T07:29:07.820Z,57.92
2023-04-09T07:31:35.854Z,215.85
2023-04-09T07:34:02.609Z,93.85
2023-04-09T07:36:29.108Z,60.33
2023-04-09T07:38:55.607Z,57.75
2023-04-09T07:41:22.174Z,48.88
2023-04-09T07:43:48.648Z,45.50
2023-04-09T07:46:21.440Z,46.72
2023-04-09T07:48:48.484Z,48.67
2023-04-09T07:51:15.136Z,82.20
2023-04-09T07:53:41.590Z,96.60
2023-04-09T07:56:08.119Z,314.65
2023-04-09T07:58:34.574Z,75.55
2023-04-09T08:01:01.022Z,72.88
2023-04-09T08:03:27.724Z,63.17
2023-04-09T08:05:54.459Z,57.00
2023-04-09T08:08:20.904Z,55.95
2023-04-09T08:10:47.347Z,60.03
2023-04-09T08:13:13.820Z,62.17
2023-04-09T08:15:41.438Z,63.25
2023-04-09T08:18:07.935Z,53.17
2023-04-09T08:20:34.697Z,53.63
2023-04-09T08:23:01.176Z,79.13
2023-04-09T08:25:27.656Z,55.38
2023-04-09T08:27:54.058Z,64.53
2023-04-09T08:30:20.563Z,58.47
2023-04-09T08:32:47.067Z,89.07
2023-04-09T08:35:13.608Z,87.32
2023-04-09T08:37:40.056Z,77.90
2023-04-09T08:40:07.254Z,72.68
2023-04-09T08:42:34.544Z,97.47
2023-04-09T08:45:04.324Z,96.22
2023-04-09T08:47:32.404Z,81.57
2023-04-09T08:49:59.269Z,93.57
2023-04-09T08:52:32.730Z,90.10
2023-04-09T08:54:59.406Z,74.20
2023-04-09T08:57:26.648Z,55.40
2023-04-09T08:59:53.140Z,70.00
2023-04-09T09:02:19.651Z,57.67
2023-04-09T09:04:47.780Z,53.88
2023-04-09T09:07:15.794Z,107.63
2023-04-09T09:09:55.818Z,129.25
2023-04-09T09:12:38.426Z,44.58
2023-04-09T09:15:28.302Z,43.17
2023-04-09T09:17:56.965Z,42.15
2023-04-09T09:20:24.300Z,39.92
2023-04-09T09:22:55.722Z,46.05
2023-04-09T09:25:22.970Z,47.15
2023-04-09T09:27:49.453Z,50.92
2023-04-09T09:30:42.520Z,51.33
2023-04-09T09:33:10.565Z,51.78
2023-04-09T09:35:54.014Z,52.33
2023-04-09T09:38:20.869Z,57.42
2023-04-09T09:40:47.906Z,82.25
2023-04-09T09:43:14.700Z,242.25
2023-04-09T09:45:42.038Z,64.38
2023-04-09T09:48:11.373Z,63.97
2023-04-09T09:50:39.021Z,62.10
2023-04-09T09:53:06.797Z,54.08
2023-04-09T09:55:37.943Z,57.97
2023-04-09T09:58:12.543Z,57.90
2023-04-09T10:00:40.804Z,50.58
2023-04-09T10:03:22.832Z,51.35
2023-04-09T10:05:50.372Z,50.80
2023-04-09T10:08:17.972Z,47.25
2023-04-09T10:10:45.276Z,53.58
2023-04-09T10:15:41.790Z,48.67
2023-04-09T10:18:08.594Z,50.42
2023-04-09T10:20:54.568Z,58.53
2023-04-09T10:23:44.328Z,49.55
2023-04-09T10:26:11.185Z,61.40
2023-04-09T10:28:38.027Z,52.42
2023-04-09T10:31:05.943Z,51.85
2023-04-09T10:33:32.481Z,49.05
2023-04-09T10:36:10.435Z,51.47
2023-04-09T10:38:41.788Z,50.28
2023-04-09T10:41:22.094Z,46.40
2023-04-09T10:43:48.653Z,52.20
2023-04-09T10:46:31.246Z,48.55
2023-04-09T10:49:10.826Z,53.42
2023-04-09T10:51:38.472Z,52.42
2023-04-09T10:54:06.207Z,53.08
2023-04-09T10:56:33.433Z,60.50
2023-04-09T10:58:59.883Z,63.50
2023-04-09T11:01:26.475Z,59.47
2023-04-09T11:04:14.808Z,53.90
2023-04-09T11:06:44.925Z,54.05
2023-04-09T11:09:11.380Z,70.40
2023-04-09T11:11:37.860Z,49.45
2023-04-09T11:14:04.482Z,45.40
2023-04-09T11:16:31.611Z,52.40
2023-04-09T11:18:58.221Z,46.67
2023-04-09T11:21:28.265Z,48.78
2023-04-09T11:23:54.766Z,53.42
2023-04-09T11:26:34.669Z,52.58
2023-04-09T11:29:05.686Z,50.47
2023-04-09T11:31:32.163Z,86.00
2023-04-09T11:33:58.635Z,49.83
2023-04-09T11:36:26.178Z,64.07
2023-04-09T11:38:52.840Z,61.28
2023-04-09T11:41:19.462Z,57.50
2023-04-09T11:43:45.929Z,65.47
2023-04-09T11:46:12.429Z,115.70
2023-04-09T11:48:39.154Z,119.65
2023-04-09T11:51:05.779Z,66.38
2023-04-09T11:53:32.216Z,125.03
2023-04-09T11:55:58.971Z,70.45
2023-04-09T11:58:26.323Z,59.95
2023-04-09T12:00:58.410Z,61.47
2023-04-09T12:03:31.837Z,66.18
2023-04-09T12:06:01.032Z,61.47
2023-04-09T12:08:27.669Z,51.30
2023-04-09T12:10:54.306Z,65.00
2023-04-09T12:13:21.426Z,58.47
2023-04-09T12:15:49.513Z,138.73
2023-04-09T12:18:16.112Z,61.38
2023-04-09T12:20:44.268Z,105.97
2023-04-09T12:23:12.202Z,64.97
2023-04-09T12:25:41.130Z,59.25
2023-04-09T12:28:11.608Z,42.47
2023-04-09T12:30:38.056Z,48.90
2023-04-09T12:33:04.752Z,47.20
2023-04-09T12:35:31.384Z,78.85
2023-04-09T12:37:57.861Z,47.58
2023-04-09T12:40:24.326Z,44.30
2023-04-09T12:42:51.067Z,43.67
2023-04-09T12:45:19.378Z,36.20
2023-04-09T12:47:46.017Z,69.90
2023-04-09T12:50:14.024Z,42.30
2023-04-09T12:52:40.746Z,58.15
2023-04-09T12:55:07.836Z,41.15
2023-04-09T12:57:34.790Z,40.60
2023-04-09T13:00:01.338Z,80.45
2023-04-09T13:02:27.949Z,41.28
2023-04-09T13:04:54.550Z,41.67
2023-04-09T13:07:21.147Z,42.80
2023-04-09T13:09:48.009Z,41.78
2023-04-09T13:12:14.530Z,41.92
2023-04-09T13:14:41.050Z,61.92
2023-04-09T13:17:07.603Z,55.92
2023-04-09T13:19:34.061Z,57.85
2023-04-09T13:22:00.531Z,37.92
2023-04-09T13:24:26.997Z,49.97
2023-04-09T13:26:53.458Z,45.42
2023-04-09T13:29:20.002Z,37.75
2023-04-09T13:31:46.489Z,39.08
2023-04-09T13:34:13.019Z,46.05
2023-04-09T13:36:39.472Z,46.45
2023-04-09T13:39:06.048Z,45.50
2023-04-09T13:41:33.438Z,45.75
2023-04-09T13:46:27.018Z,47.50
2023-04-09T13:48:53.984Z,40.47
2023-04-09T13:51:24.272Z,41.90
2023-04-09T13:53:50.773Z,43.33
2023-04-09T13:56:17.204Z,52.72
2023-04-09T13:58:43.724Z,45.25
2023-04-09T14:01:11.688Z,42.90
2023-04-09T14:03:38.514Z,46.25
2023-04-09T14:06:05.268Z,40.53
2023-04-09T14:08:31.758Z,40.28
2023-04-09T14:10:58.268Z,42.25
2023-04-09T14:13:24.752Z,41.75
2023-04-09T14:15:51.285Z,42.95
2023-04-09T14:18:17.748Z,45.25
2023-04-09T14:20:44.208Z,41.95
2023-04-09T14:23:10.782Z,39.85
2023-04-09T14:25:37.306Z,39.45
2023-04-09T14:28:04.048Z,38.03
2023-04-09T14:30:30.506Z,40.95
2023-04-09T14:32:57.038Z,49.67
2023-04-09T14:35:23.707Z,42.65
2023-04-09T14:37:50.166Z,64.43
2023-04-09T14:40:16.710Z,44.08
2023-04-09T14:42:43.135Z,47.28
2023-04-09T14:45:10.143Z,52.80
2023-04-09T14:47:36.652Z,51.47
2023-04-09T14:50:03.260Z,52.90
2023-04-09T14:52:29.754Z,45.85
2023-04-09T14:54:56.752Z,67.97
2023-04-09T14:57:23.366Z,80.50
2023-04-09T14:59:49.894Z,42.42
2023-04-09T15:02:17.111Z,39.05
2023-04-09T15:12:02.806Z,38.92
2023-04-09T15:14:31.135Z,52.75
2023-04-09T15:16:57.619Z,46.25
2023-04-09T15:19:24.089Z,77.57
2023-04-09T15:21:50.616Z,64.82
2023-04-09T15:24:17.089Z,79.07
2023-04-09T15:26:43.532Z,71.72
2023-04-09T15:29:10.227Z,62.67
2023-04-09T15:31:37.570Z,55.53
2023-04-09T15:34:04.904Z,71.68
2023-04-09T15:36:31.390Z,43.35
2023-04-09T15:38:58.071Z,52.75
2023-04-09T15:41:24.546Z,52.72
2023-04-09T15:43:51.173Z,46.80
2023-04-09T15:46:17.941Z,40.47
2023-04-09T15:48:44.737Z,36.50
2023-04-09T15:51:11.272Z,35.08
2023-04-09T15:53:37.755Z,33.63
2023-04-09T15:56:04.529Z,41.85
2023-04-09T15:58:31.386Z,49.10
2023-04-09T16:00:57.966Z,43.85
2023-04-09T16:03:24.507Z,36.50
2023-04-09T16:05:50.972Z,40.83
2023-04-09T16:08:17.417Z,38.65
2023-04-09T16:10:43.864Z,52.60
2023-04-09T16:13:10.371Z,59.40
2023-04-09T16:15:36.864Z,60.92
2023-04-09T16:18:03.375Z,94.82
2023-04-09T16:20:29.869Z,72.82
2023-04-09T16:22:56.313Z,91.47
2023-04-09T16:25:22.829Z,85.55
2023-04-09T16:27:49.318Z,60.55
2023-04-09T16:30:15.764Z,100.97
2023-04-09T16:32:42.306Z,91.15
2023-04-09T16:35:08.856Z,61.30
2023-04-09T16:37:35.296Z,74.60
2023-04-09T16:40:01.833Z,86.00
2023-04-09T16:42:28.389Z,115.95
2023-04-09T16:44:54.832Z,71.57
2023-04-09T16:47:21.318Z,66.05
2023-04-09T16:49:47.830Z,64.50
2023-04-09T16:52:14.334Z,51.05
2023-04-09T16:54:40.832Z,52.80
2023-04-09T16:57:07.303Z,54.00
2023-04-09T16:59:33.777Z,97.97
2023-04-09T17:02:00.327Z,99.13
2023-04-09T17:04:27.017Z,68.78
2023-04-09T17:06:53.621Z,63.30
2023-04-09T17:09:20.048Z,56.13
2023-04-09T17:11:46.541Z,59.13
2023-04-09T17:14:13.017Z,137.20
2023-04-09T17:16:39.467Z,141.73
2023-04-09T17:19:05.987Z,151.50
2023-04-09T17:21:32.409Z,178.30
2023-04-09T17:23:58.858Z,171.38
2023-04-09T17:26:25.381Z,158.70
2023-04-09T17:28:52.039Z,142.38
2023-04-09T17:31:18.842Z,209.43
2023-04-09T17:33:45.423Z,252.02
2023-04-09T17:36:11.870Z,155.07
2023-04-09T17:38:38.376Z,125.65
2023-04-09T17:41:07.380Z,110.32
2023-04-09T17:43:34.115Z,98.07
2023-04-09T17:46:00.631Z,104.85
2023-04-09T17:48:27.157Z,99.75
2023-04-09T17:50:53.703Z,110.88
2023-04-09T17:53:21.106Z,113.68
2023-04-09T17:55:48.882Z,120.55
2023-04-09T17:58:15.449Z,168.13
2023-04-09T18:00:42.182Z,314.08
2023-04-09T18:03:09.596Z,280.95
2023-04-09T18:05:36.451Z,228.77
2023-04-09T18:08:03.053Z,274.98
2023-04-09T18:10:29.701Z,271.50
2023-04-09T18:12:56.172Z,282.38
2023-04-09T18:15:22.708Z,327.30
2023-04-09T18:17:49.274Z,338.83
2023-04-09T18:20:15.814Z,377.17
2023-04-09T18:22:43.439Z,365.05
2023-04-09T18:25:10.240Z,401.05
2023-04-09T18:27:36.750Z,426.08
2023-04-09T18:30:03.425Z,296.77
2023-04-09T18:32:30.067Z,288.02
2023-04-09T18:34:56.505Z,285.42
2023-04-09T18:37:22.958Z,263.55
2023-04-09T18:39:49.405Z,322.40
2023-04-09T18:42:15.855Z,294.10
2023-04-09T18:44:42.305Z,287.48
2023-04-09T18:47:09.040Z,263.10
2023-04-09T18:49:36.208Z,238.43
2023-04-09T18:52:03.423Z,218.07
2023-04-09T18:54:29.965Z,202.45
2023-04-09T18:56:56.448Z,220.80
2023-04-09T18:59:22.920Z,188.60
2023-04-09T19:01:49.461Z,171.63
2023-04-09T19:04:16.050Z,197.73
2023-04-09T19:06:43.497Z,319.70
2023-04-09T19:09:10.000Z,289.55
2023-04-09T19:11:36.449Z,258.58
2023-04-09T19:14:03.001Z,233.95
2023-04-09T19:16:29.681Z,245.00
2023-04-09T19:18:56.216Z,232.27
2023-04-09T19:21:22.739Z,240.35
2023-04-09T19:23:49.255Z,242.05
2023-04-09T19:26:15.722Z,255.77
2023-04-09T19:28:42.178Z,252.48
2023-04-09T19:31:08.732Z,261.63
2023-04-09T19:33:35.265Z,186.07
2023-04-09T19:36:01.792Z,161.70
2023-04-09T19:38:28.262Z,151.68
2023-04-09T19:40:54.752Z,122.45
2023-04-09T19:43:21.212Z,136.60
2023-04-09T19:45:47.658Z,134.02
2023-04-09T19:48:14.154Z,147.18
2023-04-09T19:50:40.647Z,117.65
2023-04-09T19:53:07.301Z,106.70
2023-04-09T19:55:34.151Z,119.03
2023-04-09T19:58:00.986Z,133.75
2023-04-09T20:00:28.093Z,146.73
2023-04-09T20:02:55.508Z,162.90
2023-04-09T20:05:22.407Z,163.15
2023-04-09T20:07:49.589Z,156.43
2023-04-09T20:10:16.254Z,146.93
2023-04-09T20:12:47.182Z,130.32
2023-04-09T20:15:13.656Z,120.78
2023-04-09T20:17:40.140Z,131.50
2023-04-09T20:20:07.155Z,120.82
2023-04-09T20:22:33.830Z,104.55
2023-04-09T20:25:00.269Z,110.68
2023-04-09T20:27:26.784Z,174.50
2023-04-09T20:29:53.233Z,141.30
2023-04-09T20:32:20.145Z,114.55
2023-04-09T20:34:46.709Z,107.20
2023-04-09T20:37:13.173Z,102.38
2023-04-09T20:39:39.651Z,111.63
2023-04-09T20:42:06.094Z,200.07
2023-04-09T20:44:32.550Z,196.80
2023-04-09T20:46:58.960Z,205.13
2023-04-09T20:49:25.463Z,118.75
2023-04-09T20:51:51.966Z,86.55
2023-04-09T20:54:18.425Z,83.18
2023-04-09T20:56:44.907Z,77.03
2023-04-09T20:59:11.379Z,60.53
2023-04-09T21:01:37.947Z,68.78
2023-04-09T21:04:04.674Z,218.85
2023-04-09T21:06:31.243Z,107.78
2023-04-09T21:08:58.658Z,63.80
2023-04-09T21:11:26.382Z,70.35
2023-04-09T21:13:55.109Z,61.90
2023-04-09T21:16:22.072Z,72.93
2023-04-09T21:18:48.624Z,87.70
2023-04-09T21:21:15.125Z,102.55
2023-04-09T21:23:41.631Z,109.60
2023-04-09T21:26:08.107Z,103.80
2023-04-09T21:28:34.552Z,93.10
2023-04-09T21:31:01.003Z,92.28
2023-04-09T21:33:29.343Z,78.75
2023-04-09T21:35:56.712Z,69.68
2023-04-09T21:38:23.303Z,55.55
2023-04-09T21:40:49.777Z,51.10
2023-04-09T21:43:16.203Z,49.88
2023-04-09T21:45:42.667Z,45.28
2023-04-09T21:48:09.091Z,41.15
2023-04-09T21:50:35.600Z,53.70
2023-04-09T21:53:02.136Z,77.53
2023-04-09T21:55:28.668Z,80.90
2023-04-09T21:57:55.136Z,67.03
2023-04-09T22:00:21.605Z,59.17
2023-04-09T22:02:48.265Z,55.80
2023-04-09T22:05:14.822Z,61.47
2023-04-09T22:07:41.952Z,57.65
2023-04-09T22:10:09.068Z,57.03
2023-04-09T22:12:35.610Z,56.65
2023-04-09T22:15:03.698Z,54.90
2023-04-09T22:17:30.238Z,53.30
2023-04-09T22:19:56.803Z,49.42
2023-04-09T22:22:23.266Z,49.38
2023-04-09T22:24:49.719Z,46.42
2023-04-09T22:27:16.219Z,47.13
2023-04-09T22:29:42.708Z,44.45
2023-04-09T22:32:09.403Z,48.78
2023-04-09T22:34:35.871Z,50.58
2023-04-09T22:37:02.323Z,57.90
2023-04-09T22:39:28.778Z,74.75
2023-04-09T22:41:55.283Z,62.13
2023-04-09T22:44:21.772Z,61.58
2023-04-09T22:46:48.270Z,73.38
2023-04-09T22:49:14.815Z,70.35
2023-04-09T22:51:41.872Z,48.53
2023-04-09T22:54:09.076Z,60.75
2023-04-09T22:56:35.662Z,49.33
2023-04-09T22:59:02.397Z,52.85
2023-04-09T23:01:29.252Z,53.28
2023-04-09T23:03:55.821Z,51.10
2023-04-09T23:06:22.308Z,51.67
2023-04-09T23:08:48.801Z,58.88
2023-04-09T23:11:15.295Z,50.30
2023-04-09T23:13:41.978Z,55.75
2023-04-09T23:16:10.032Z,54.97
2023-04-09T23:18:36.928Z,53.50
2023-04-09T23:21:07.433Z,56.70
2023-04-09T23:23:34.854Z,55.33
2023-04-09T23:26:01.540Z,56.88
2023-04-09T23:28:28.304Z,55.47
2023-04-09T23:30:55.550Z,53.28
2023-04-09T23:33:22.580Z,45.05
2023-04-09T23:35:49.076Z,47.35
2023-04-09T23:38:15.600Z,48.45
2023-04-09T23:40:42.939Z,45.63
2023-04-09T23:43:09.621Z,49.33
2023-04-09T23:45:36.062Z,54.90
2023-04-09T23:48:03.756Z,62.17
2023-04-09T23:50:30.251Z,63.65
2023-04-09T23:52:56.817Z,57.00
2023-04-09T23:55:23.310Z,63.95
2023-04-09T23:57:49.775Z,72.07
